Time;durP1;ratioP1;P1;durP2;ratioP2;P2;SDS_P1;SDS_P2;PMS_P1;PMS_P2;Temp;Humidity;BMP_temperature;BMP_pressure;BME280_temperature;BME280_humidity;BME280_pressure;Samples;Min_cycle;Max_cycle;Signal;HPM_P1;HPM_P2
2022/01/30 00:02:08;;;;;;;27.63;6.80;;;;;;;7.59;77.60;102571.63;4864016;29;20056;-44
2022/01/30 00:04:36;;;;;;;26.63;6.35;;;;;;;7.54;77.62;102591.22;4863788;29;20060;-44
2022/01/30 00:07:04;;;;;;;25.20;6.68;;;;;;;7.50;77.33;102592.66;4863316;29;20057;-44
2022/01/30 00:09:32;;;;;;;26.67;6.32;;;;;;;7.44;78.07;102586.19;4863711;29;20060;-42
2022/01/30 00:12:02;;;;;;;24.17;6.80;;;;;;;7.41;77.58;102583.91;4863795;29;20497;-45
2022/01/30 00:14:34;;;;;;;25.70;6.80;;;;;;;7.41;77.18;102574.94;4863336;29;20124;-45
2022/01/30 00:17:09;;;;;;;29.17;7.22;;;;;;;7.40;77.91;102567.81;4863475;29;20049;-45
2022/01/30 00:19:45;;;;;;;26.83;6.25;;;;;;;7.42;77.70;102568.47;4863384;29;20408;-45
2022/01/30 00:24:57;;;;;;;31.17;7.28;;;;;;;7.39;77.73;102577.00;4863517;29;20060;-46
2022/01/30 00:30:17;;;;;;;27.38;6.07;;;;;;;7.41;76.87;102604.75;4788632;29;20056;-45
2022/01/30 00:32:45;;;;;;;28.13;7.15;;;;;;;7.40;76.94;102597.66;4772999;30;20086;-44
2022/01/30 00:35:33;;;;;;;27.45;6.82;;;;;;;7.40;77.10;102603.06;4770590;30;20056;-45
2022/01/30 00:38:01;;;;;;;28.92;6.80;;;;;;;7.40;77.47;102595.78;4771363;30;20071;-45
2022/01/30 00:40:34;;;;;;;23.52;6.55;;;;;;;7.41;76.60;102591.22;4770688;30;20568;-45
2022/01/30 00:43:04;;;;;;;22.35;6.57;;;;;;;7.40;76.68;102592.22;4771707;30;20135;-42
2022/01/30 00:45:33;;;;;;;28.75;7.35;;;;;;;7.37;76.72;102595.34;4771231;30;20083;-43
2022/01/30 00:48:01;;;;;;;30.85;6.93;;;;;;;7.34;77.48;102588.47;4770256;30;20117;-44
2022/01/30 00:50:29;;;;;;;28.23;6.75;;;;;;;7.31;77.08;102591.59;4771055;30;20533;-43
2022/01/30 00:52:57;;;;;;;25.08;6.93;;;;;;;7.25;77.17;102593.22;4770077;30;20052;-47
2022/01/30 00:55:26;;;;;;;24.27;7.15;;;;;;;7.25;78.13;102593.22;4770427;30;20114;-46
2022/01/30 00:57:55;;;;;;;25.38;6.78;;;;;;;7.26;77.97;102610.31;4784637;30;20059;-44
2022/01/30 01:00:24;;;;;;;28.90;7.03;;;;;;;7.23;77.71;102606.13;4772469;29;20056;-50
2022/01/30 01:02:52;;;;;;;21.58;6.18;;;;;;;7.23;78.28;102606.13;4773805;30;20592;-46
2022/01/30 01:05:20;;;;;;;23.77;6.50;;;;;;;7.22;78.03;102615.31;4770035;30;20047;-44
2022/01/30 01:07:51;;;;;;;26.85;6.47;;;;;;;7.21;78.19;102612.78;4831136;29;20049;-46
2022/01/30 01:10:39;;;;;;;22.77;6.25;;;;;;;7.19;78.63;102617.56;4845984;29;20057;-44
2022/01/30 01:23:45;;;;;;;30.90;7.43;;;;;;;7.09;78.55;102612.53;4862296;29;20144;-46
2022/01/30 01:26:14;;;;;;;23.75;6.45;;;;;;;7.07;78.45;102611.91;4862502;29;20045;-46
2022/01/30 01:28:41;;;;;;;27.00;6.25;;;;;;;7.05;78.42;102614.00;4862674;29;20049;-42
2022/01/30 01:31:09;;;;;;;28.25;6.68;;;;;;;7.06;79.04;102615.66;4845935;29;20076;-48
2022/01/30 01:36:17;;;;;;;25.60;6.85;;;;;;;7.05;77.99;102627.53;4845623;29;20101;-46
2022/01/30 01:38:45;;;;;;;30.33;6.75;;;;;;;7.02;78.04;102625.19;4845981;29;20057;-45
2022/01/30 01:41:17;;;;;;;29.38;7.13;;;;;;;7.00;77.94;102627.31;4845159;29;20128;-46
2022/01/30 01:43:45;;;;;;;25.08;6.32;;;;;;;7.00;77.79;102628.13;4845896;29;20049;-46
2022/01/30 01:46:17;;;;;;;25.17;6.85;;;;;;;7.01;77.98;102628.97;4845569;29;20397;-46
2022/01/30 01:48:48;;;;;;;32.67;6.90;;;;;;;6.98;78.27;102634.78;4845530;29;20565;-46
2022/01/30 01:51:21;;;;;;;29.30;7.10;;;;;;;6.95;77.95;102629.75;4841437;29;20076;-46
2022/01/30 01:53:51;;;;;;;28.25;6.47;;;;;;;6.95;77.96;102632.47;4826016;29;20077;-42
2022/01/30 01:56:20;;;;;;;25.88;6.45;;;;;;;6.95;77.84;102636.03;4827666;29;20136;-43
2022/01/30 01:58:53;;;;;;;30.13;6.93;;;;;;;6.91;77.84;102623.06;4844027;29;20049;-45
2022/01/30 02:01:25;;;;;;;27.08;6.63;;;;;;;6.90;77.85;102621.38;4862177;29;20052;-46
2022/01/30 02:03:54;;;;;;;23.85;7.18;;;;;;;6.88;77.92;102621.59;4861480;29;20074;-44
2022/01/30 02:06:24;;;;;;;23.70;6.30;;;;;;;6.86;78.05;102620.13;4845600;29;20064;-47
2022/01/30 02:08:57;;;;;;;20.02;5.85;;;;;;;6.85;77.94;102613.03;4844937;29;20053;-43
2022/01/30 02:11:33;;;;;;;25.95;7.10;;;;;;;6.81;77.61;102618.84;4845168;29;20105;-44
2022/01/30 02:25:28;;;;;;;26.20;5.97;;;;;;;6.75;77.30;102622.34;4861078;29;20431;-47
2022/01/30 02:27:57;;;;;;;28.88;6.45;;;;;;;6.74;77.43;102617.97;4844845;29;20407;-44
2022/01/30 02:30:30;;;;;;;20.98;5.70;;;;;;;6.75;77.29;102633.16;4844388;29;20128;-45
2022/01/30 02:32:58;;;;;;;26.75;6.40;;;;;;;6.73;77.37;102618.97;4844759;29;20512;-45
2022/01/30 02:35:26;;;;;;;26.48;6.45;;;;;;;6.71;77.71;102615.66;4845150;29;20041;-48
2022/01/30 02:37:56;;;;;;;27.27;6.20;;;;;;;6.71;77.73;102621.06;4861357;29;20136;-45
2022/01/30 02:40:24;;;;;;;20.33;5.95;;;;;;;6.71;77.60;102629.19;4861392;29;20049;-46
2022/01/30 02:42:53;;;;;;;28.27;6.03;;;;;;;6.69;78.08;102608.75;4861663;29;20053;-47
2022/01/30 02:45:22;;;;;;;26.25;6.55;;;;;;;6.66;78.21;102615.38;4844792;29;20060;-45
2022/01/30 02:50:55;;;;;;;23.33;5.70;;;;;;;6.62;78.89;102614.13;4768202;30;20102;-43
2022/01/30 02:53:31;;;;;;;25.83;6.25;;;;;;;6.62;78.67;102614.13;4768148;30;20078;-45
2022/01/30 02:55:58;;;;;;;23.67;5.90;;;;;;;6.64;78.66;102627.44;4768321;30;20550;-44
2022/01/30 02:58:26;;;;;;;21.83;6.05;;;;;;;6.63;79.27;102620.38;4767854;30;20495;-45
2022/01/30 03:00:55;;;;;;;27.75;6.32;;;;;;;6.66;79.20;102641.66;4752913;30;20106;-43
2022/01/30 03:03:23;;;;;;;23.55;6.20;;;;;;;6.67;79.07;102633.34;4753448;30;20087;-42
2022/01/30 03:05:51;;;;;;;21.10;5.80;;;;;;;6.67;78.91;102635.22;4753427;30;20551;-45
2022/01/30 03:08:18;;;;;;;26.30;6.68;;;;;;;6.66;78.72;102647.88;4753591;30;20060;-46
2022/01/30 03:10:46;;;;;;;24.48;6.60;;;;;;;6.65;79.06;102650.81;4752715;30;20085;-44
2022/01/30 03:13:14;;;;;;;22.02;6.28;;;;;;;6.63;79.04;102651.00;4753670;30;20529;-47
2022/01/30 03:15:42;;;;;;;24.17;6.43;;;;;;;6.63;79.09;102647.47;4753322;30;20051;-45
2022/01/30 03:18:09;;;;;;;23.83;6.10;;;;;;;6.63;79.36;102658.28;4768171;30;20047;-45
2022/01/30 03:20:37;;;;;;;21.83;6.15;;;;;;;6.63;79.17;102664.53;4752612;30;20125;-45
2022/01/30 03:23:05;;;;;;;22.52;5.82;;;;;;;6.61;78.37;102667.47;4753351;30;20102;-46
2022/01/30 03:25:33;;;;;;;19.50;5.50;;;;;;;6.61;78.62;102672.03;4770215;30;20158;-45
2022/01/30 03:28:25;;;;;;;23.70;6.32;;;;;;;6.59;79.05;102679.50;4828806;29;20046;-46
2022/01/30 03:31:05;;;;;;;22.08;6.35;;;;;;;6.61;78.28;102685.56;4847715;29;20098;-45
2022/01/30 03:33:48;;;;;;;24.92;5.88;;;;;;;6.63;78.45;102686.22;4849076;29;20569;-46
2022/01/30 03:36:22;;;;;;;22.08;5.63;;;;;;;6.62;78.46;102692.66;4848230;29;20053;-45
2022/01/30 03:38:50;;;;;;;22.23;6.10;;;;;;;6.64;78.65;102703.28;4848041;29;20121;-44
2022/01/30 03:41:18;;;;;;;27.35;6.63;;;;;;;6.64;77.91;102701.44;4847282;29;20045;-44
2022/01/30 03:43:45;;;;;;;26.25;6.97;;;;;;;6.63;78.52;102707.06;4847831;29;20076;-45
2022/01/30 03:46:14;;;;;;;20.85;6.18;;;;;;;6.61;78.21;102718.06;4847785;29;20084;-46
2022/01/30 03:48:42;;;;;;;23.27;5.65;;;;;;;6.63;78.45;102724.13;4847949;29;20102;-44
2022/01/30 03:51:16;;;;;;;18.77;5.20;;;;;;;6.64;78.02;102724.97;4863088;29;20041;-46
2022/01/30 03:53:44;;;;;;;19.08;5.63;;;;;;;6.61;77.92;102728.91;4847137;29;20057;-44
2022/01/30 03:56:12;;;;;;;17.50;5.00;;;;;;;6.60;77.43;102729.94;4847918;29;20149;-45
2022/01/30 03:58:39;;;;;;;22.88;6.15;;;;;;;6.55;77.41;102732.41;4847685;29;20048;-45
2022/01/30 04:01:12;;;;;;;21.38;5.10;;;;;;;6.52;77.19;102732.78;4846719;29;20046;-44
2022/01/30 04:03:39;;;;;;;18.20;5.57;;;;;;;6.49;76.98;102733.16;4864019;29;20056;-48
2022/01/30 04:06:09;;;;;;;20.80;5.05;;;;;;;6.50;76.62;102734.84;4847371;29;20049;-47
2022/01/30 04:08:38;;;;;;;21.92;4.90;;;;;;;6.46;76.16;102734.38;4845338;29;20074;-45
2022/01/30 04:11:20;;;;;;;24.13;4.72;;;;;;;6.45;76.16;102731.91;4846924;29;20069;-46
2022/01/30 04:14:19;;;;;;;22.88;4.95;;;;;;;6.47;76.30;102732.50;4847545;29;20057;-47
2022/01/30 04:17:09;;;;;;;17.42;4.57;;;;;;;6.48;75.86;102740.44;4847758;29;20071;-43
2022/01/30 04:19:48;;;;;;;20.48;5.28;;;;;;;6.44;75.38;102741.88;4847135;29;20042;-46
2022/01/30 04:22:42;;;;;;;17.88;4.60;;;;;;;6.44;74.75;102741.03;4842248;29;20174;-46
2022/01/30 04:25:26;;;;;;;18.00;4.47;;;;;;;6.41;74.93;102742.25;4847290;29;20137;-48
2022/01/30 04:28:19;;;;;;;21.17;4.40;;;;;;;6.42;74.67;102749.34;4847448;29;20189;-47
2022/01/30 04:31:06;;;;;;;18.60;4.88;;;;;;;6.40;74.59;102741.44;4862860;29;20523;-46
2022/01/30 04:34:10;;;;;;;15.93;4.22;;;;;;;6.43;73.97;102747.50;4788496;30;20044;-47
2022/01/30 04:37:04;;;;;;;17.17;4.32;;;;;;;6.44;74.12;102749.16;4773140;30;20507;-44
2022/01/30 04:52:35;;;;;;;;;;;;;;;6.42;73.48;102748.50;4768781;30;20066;-46
2022/01/30 04:58:26;;;;;;;17.15;3.83;;;;;;;6.36;73.45;102750.13;4770264;30;20058;-44
2022/01/30 05:07:32;;;;;;;13.98;4.10;;;;;;;6.29;74.33;102760.03;4734539;30;20460;-45
2022/01/30 05:10:19;;;;;;;12.77;3.88;;;;;;;6.29;74.53;102771.69;4734100;30;20084;-43
2022/01/30 05:13:17;;;;;;;13.68;4.10;;;;;;;6.26;74.35;102772.09;4730152;30;20063;-47
2022/01/30 05:16:23;;;;;;;17.00;3.95;;;;;;;6.26;74.68;102776.69;4682506;30;20549;-45
2022/01/30 05:19:22;;;;;;;20.70;4.25;;;;;;;6.24;74.37;102779.56;4668902;30;20600;-46
2022/01/30 05:22:00;;;;;;;16.65;4.75;;;;;;;6.19;74.48;102776.59;4664675;30;20081;-46
2022/01/30 05:24:35;;;;;;;15.52;3.90;;;;;;;6.18;74.71;102774.91;4650846;30;20059;-47
2022/01/30 05:27:08;;;;;;;12.98;3.80;;;;;;;6.17;74.26;102779.47;4650993;30;20133;-43
2022/01/30 05:29:41;;;;;;;14.80;3.78;;;;;;;6.16;74.44;102776.97;4694492;30;20062;-45
2022/01/30 05:32:27;;;;;;;16.67;3.70;;;;;;;6.15;74.42;102780.69;4716319;30;20057;-45
2022/01/30 05:35:13;;;;;;;14.18;3.60;;;;;;;6.14;74.42;102779.03;4716907;30;20072;-46
2022/01/30 05:37:56;;;;;;;16.73;4.20;;;;;;;6.11;74.22;102788.38;4702042;30;20057;-45
2022/01/30 05:40:42;;;;;;;15.63;4.40;;;;;;;6.12;74.12;102787.34;4743740;30;20051;-43
2022/01/30 05:43:40;;;;;;;13.27;3.80;;;;;;;6.13;74.14;102788.16;4779195;30;20070;-45
2022/01/30 05:46:51;;;;;;;14.43;3.97;;;;;;;6.09;73.64;102793.13;4767930;29;20585;-45
2022/01/30 05:49:49;;;;;;;16.50;3.83;;;;;;;6.06;73.59;102787.25;4790186;29;20169;-42
2022/01/30 05:52:31;;;;;;;17.63;4.53;;;;;;;6.04;73.27;102797.41;4800345;29;20150;-43
2022/01/30 05:55:20;;;;;;;11.18;3.65;;;;;;;6.02;73.42;102788.69;4822314;29;20123;-45
2022/01/30 05:57:48;;;;;;;13.52;3.65;;;;;;;6.00;73.66;102798.84;4808010;29;20110;-44
2022/01/30 06:00:21;;;;;;;14.35;3.88;;;;;;;5.99;73.23;102795.31;4807977;29;20052;-47
2022/01/30 06:02:49;;;;;;;11.75;3.60;;;;;;;5.96;73.79;102793.81;4822493;29;20046;-44
2022/01/30 06:05:20;;;;;;;16.58;3.95;;;;;;;5.98;73.90;102796.31;4807885;29;20065;-45
2022/01/30 06:10:25;;;;;;;13.95;3.88;;;;;;;5.96;73.41;102803.78;4807792;29;20132;-45
2022/01/30 06:12:55;;;;;;;17.55;4.45;;;;;;;5.92;73.24;102810.59;4807244;29;20627;-46
2022/01/30 06:15:23;;;;;;;13.30;4.32;;;;;;;5.88;73.30;102806.56;4791862;29;20630;-46
2022/01/30 06:18:00;;;;;;;18.15;3.88;;;;;;;5.85;73.61;102801.53;4814886;29;20497;-47
2022/01/30 06:20:49;;;;;;;15.73;4.03;;;;;;;5.84;74.14;102806.09;4786518;29;20055;-43
2022/01/30 06:23:36;;;;;;;18.40;4.72;;;;;;;5.83;73.93;102801.72;4801422;29;20171;-47
2022/01/30 06:26:39;;;;;;;14.20;4.07;;;;;;;5.84;74.00;102816.91;4768622;30;20055;-42
2022/01/30 06:29:42;;;;;;;16.98;4.50;;;;;;;5.87;73.81;102818.41;4768737;30;20515;-45
2022/01/30 06:32:48;;;;;;;;;;;;;;;5.85;73.88;102807.78;4768512;30;20083;-45
2022/01/30 06:35:54;;;;;;;20.50;4.43;;;;;;;5.84;73.85;102822.31;4768516;30;19932;-44
2022/01/30 06:38:28;;;;;;;17.60;4.75;;;;;;;5.82;73.82;102827.09;4768328;30;20144;-43
2022/01/30 06:41:14;;;;;;;13.60;4.35;;;;;;;5.80;74.03;102837.25;4768650;30;20079;-50
2022/01/30 06:44:08;;;;;;;22.65;4.50;;;;;;;5.79;73.97;102835.56;4747723;30;20107;-48
2022/01/30 06:46:55;;;;;;;14.55;4.47;;;;;;;5.81;73.87;102832.69;4768428;30;20493;-45
2022/01/30 06:49:41;;;;;;;;;;;;;;;5.80;73.87;102826.44;4768681;29;20072;-47
2022/01/30 06:52:28;;;;;;;14.80;4.07;;;;;;;5.79;73.79;102840.97;4753480;30;19933;-46
2022/01/30 06:55:15;;;;;;;19.08;4.57;;;;;;;5.78;73.94;102836.59;4767603;30;20190;-47
2022/01/30 06:58:01;;;;;;;18.58;5.07;;;;;;;5.76;73.74;102852.19;4777431;30;20164;-47
2022/01/30 07:00:47;;;;;;;;;;;;;;;5.77;74.20;102848.44;4804544;29;20054;-43
2022/01/30 07:03:50;;;;;;;21.63;4.63;;;;;;;5.77;74.35;102851.13;4833783;29;19930;-45
2022/01/30 07:06:26;;;;;;;13.73;4.68;;;;;;;5.78;74.42;102855.53;4843779;29;20049;-47
2022/01/30 07:08:54;;;;;;;20.80;5.13;;;;;;;5.79;74.61;102862.63;4861337;29;20050;-48
2022/01/30 07:11:21;;;;;;;17.08;4.30;;;;;;;5.81;74.51;102870.56;4861002;29;20050;-47
2022/01/30 07:13:49;;;;;;;18.85;4.78;;;;;;;5.81;74.47;102865.97;4860608;29;20092;-50
2022/01/30 07:16:17;;;;;;;17.15;4.07;;;;;;;5.84;74.78;102871.00;4860589;29;20044;-50
2022/01/30 07:18:44;;;;;;;17.02;4.40;;;;;;;5.86;74.88;102873.53;4860965;29;20049;-52
2022/01/30 07:21:15;;;;;;;15.90;4.50;;;;;;;5.85;74.69;102870.00;4844113;29;20548;-49
2022/01/30 07:23:43;;;;;;;18.55;4.85;;;;;;;5.86;74.85;102866.25;4860694;29;20094;-47
2022/01/30 07:26:11;;;;;;;17.35;4.50;;;;;;;5.85;74.66;102878.13;4860035;29;20052;-49
2022/01/30 07:28:38;;;;;;;17.35;5.07;;;;;;;5.86;74.75;102874.38;4861022;29;20072;-48
2022/01/30 07:31:06;;;;;;;16.05;4.82;;;;;;;5.83;74.78;102880.16;4860973;29;20052;-45
2022/01/30 07:33:35;;;;;;;16.48;4.80;;;;;;;5.81;74.69;102879.50;4860539;29;20057;-46
2022/01/30 07:36:03;;;;;;;23.00;4.97;;;;;;;5.78;74.91;102882.59;4861275;29;20049;-46
2022/01/30 07:38:30;;;;;;;18.48;4.68;;;;;;;5.74;74.86;102889.38;4860519;29;20049;-46
2022/01/30 07:40:58;;;;;;;19.30;4.95;;;;;;;5.70;75.11;102891.63;4844494;29;20053;-47
2022/01/30 07:43:26;;;;;;;19.23;4.95;;;;;;;5.67;75.16;102893.84;4844021;29;20064;-46
2022/01/30 07:46:04;;;;;;;17.05;4.90;;;;;;;5.63;75.63;102895.22;4843473;29;20093;-49
2022/01/30 07:48:32;;;;;;;21.48;5.07;;;;;;;5.63;75.69;102895.22;4860399;29;20094;-48
2022/01/30 07:51:00;;;;;;;19.77;4.53;;;;;;;5.64;76.09;102903.16;4860401;29;20045;-46
2022/01/30 07:53:27;;;;;;;22.92;5.53;;;;;;;5.69;76.03;102910.72;4859964;29;20045;-46
2022/01/30 07:55:56;;;;;;;18.40;4.30;;;;;;;5.74;76.45;102902.91;4860024;29;20045;-45
2022/01/30 07:58:24;;;;;;;17.48;4.93;;;;;;;5.77;75.99;102905.22;4860662;29;20102;-47
2022/01/30 08:00:52;;;;;;;17.33;5.22;;;;;;;5.76;76.06;102912.50;4860518;29;20046;-45
2022/01/30 08:03:19;;;;;;;20.48;5.55;;;;;;;5.78;76.38;102908.81;4859818;29;20128;-49
2022/01/30 08:05:47;;;;;;;23.58;5.18;;;;;;;5.79;76.24;102914.00;4859183;29;20046;-45
2022/01/30 08:08:15;;;;;;;18.60;5.30;;;;;;;5.73;76.05;102918.31;4858690;29;20080;-47
2022/01/30 08:10:42;;;;;;;16.95;4.38;;;;;;;5.73;75.97;102917.47;4860078;29;20054;-45
2022/01/30 08:13:10;;;;;;;17.00;5.18;;;;;;;5.71;76.04;102927.63;4861773;29;20043;-43
2022/01/30 08:15:38;;;;;;;18.83;5.05;;;;;;;5.70;76.08;102925.94;4845587;29;20042;-48
2022/01/30 08:18:05;;;;;;;20.50;5.32;;;;;;;5.71;76.44;102927.63;4862298;29;20038;-49
2022/01/30 08:20:33;;;;;;;20.40;5.45;;;;;;;5.73;76.29;102936.41;4862137;29;20076;-48
2022/01/30 08:23:06;;;;;;;18.52;5.32;;;;;;;5.79;76.19;102922.13;4860916;29;20053;-48
2022/01/30 08:25:34;;;;;;;20.23;6.10;;;;;;;5.84;76.33;102924.28;4862049;29;20057;-50
2022/01/30 08:28:02;;;;;;;24.75;5.95;;;;;;;5.85;75.93;102929.53;4861951;29;20042;-47
2022/01/30 08:30:29;;;;;;;16.10;5.53;;;;;;;5.84;75.82;102924.28;4861556;29;20412;-48
2022/01/30 08:32:58;;;;;;;20.08;5.45;;;;;;;5.84;75.19;102918.88;4862483;29;20055;-47
2022/01/30 08:35:26;;;;;;;19.58;5.80;;;;;;;5.79;75.34;102922.13;4845712;29;20264;-46
2022/01/30 08:37:55;;;;;;;21.15;5.60;;;;;;;5.78;75.40;102925.88;4862240;29;20045;-47
2022/01/30 08:40:22;;;;;;;19.58;5.45;;;;;;;5.79;75.34;102929.41;4845855;29;20397;-45
2022/01/30 08:42:51;;;;;;;20.17;5.63;;;;;;;5.76;75.57;102936.03;4862180;29;20132;-50
2022/01/30 08:45:20;;;;;;;25.00;5.88;;;;;;;5.75;75.58;102931.66;4846038;29;20049;-48
2022/01/30 08:47:50;;;;;;;24.02;5.63;;;;;;;5.75;75.69;102932.50;4862164;29;20049;-47
2022/01/30 08:50:18;;;;;;;17.60;5.78;;;;;;;5.77;75.72;102940.41;4861645;29;20050;-47
2022/01/30 08:52:46;;;;;;;31.05;6.72;;;;;;;5.77;75.60;102937.69;4845604;29;20068;-43
2022/01/30 08:55:15;;;;;;;22.05;6.03;;;;;;;5.75;75.48;102942.47;4861892;29;20132;-46
2022/01/30 08:57:42;;;;;;;23.40;6.18;;;;;;;5.75;75.40;102947.88;4845510;29;20058;-47
2022/01/30 09:00:13;;;;;;;22.50;5.90;;;;;;;5.75;75.66;102947.88;4861680;29;20045;-44
2022/01/30 09:02:41;;;;;;;21.52;5.47;;;;;;;5.77;75.19;102953.91;4861925;29;20049;-46
2022/01/30 09:05:11;;;;;;;24.40;5.68;;;;;;;5.79;74.97;102953.75;4861999;29;20077;-46
2022/01/30 09:07:39;;;;;;;26.10;5.95;;;;;;;5.81;75.25;102957.94;4826575;29;1068310;-47
2022/01/30 09:10:09;;;;;;;21.60;5.85;;;;;;;5.86;74.97;102954.69;4862504;29;20049;-44
2022/01/30 09:12:36;;;;;;;21.23;5.90;;;;;;;5.88;75.02;102958.06;4846695;29;20052;-45
2022/01/30 09:15:06;;;;;;;25.92;6.15;;;;;;;5.87;75.06;102964.47;4862826;29;20046;-45
2022/01/30 09:17:33;;;;;;;27.75;5.93;;;;;;;5.88;75.17;102975.13;4862802;29;20038;-47
2022/01/30 09:20:03;;;;;;;26.50;6.32;;;;;;;5.92;74.88;102971.03;4862499;29;20042;-49
2022/01/30 09:22:30;;;;;;;23.98;6.28;;;;;;;5.94;74.72;102969.03;4861203;29;20056;-44
2022/01/30 09:24:58;;;;;;;24.42;5.75;;;;;;;5.96;74.67;102971.53;4862419;29;20037;-46
2022/01/30 09:27:26;;;;;;;22.08;6.05;;;;;;;5.97;74.50;102982.19;4862749;29;20041;-48
2022/01/30 09:29:54;;;;;;;23.67;5.63;;;;;;;6.00;74.65;102982.84;4862398;29;20063;-44
2022/01/30 09:32:21;;;;;;;25.38;5.55;;;;;;;6.03;74.72;102982.47;4862817;29;20065;-46
2022/01/30 09:34:49;;;;;;;23.42;5.97;;;;;;;6.04;74.58;102985.00;4862560;29;20396;-46
2022/01/30 09:37:18;;;;;;;25.65;5.80;;;;;;;6.04;74.22;102986.84;4862242;29;20053;-45
2022/01/30 09:39:45;;;;;;;20.48;5.75;;;;;;;6.05;74.59;102980.41;4862091;29;20046;-49
2022/01/30 09:42:16;;;;;;;25.48;6.65;;;;;;;6.07;74.57;102989.19;4861995;29;20041;-44
2022/01/30 09:44:44;;;;;;;21.35;6.40;;;;;;;6.13;74.45;102985.75;4862110;29;20531;-45
2022/01/30 09:47:17;;;;;;;30.17;7.60;;;;;;;6.15;74.43;102980.97;4862173;29;20215;-45
2022/01/30 09:49:47;;;;;;;29.98;6.82;;;;;;;6.16;74.96;102990.81;4862080;29;20072;-46
2022/01/30 09:52:16;;;;;;;28.83;7.13;;;;;;;6.17;74.91;102993.31;4861746;29;20056;-45
2022/01/30 09:54:44;;;;;;;26.27;6.45;;;;;;;6.20;75.22;102989.38;4862188;29;20057;-47
2022/01/30 09:57:11;;;;;;;24.38;6.45;;;;;;;6.22;75.06;102990.03;4862244;29;20389;-46
2022/01/30 09:59:39;;;;;;;28.13;6.10;;;;;;;6.23;74.96;102996.28;4861912;29;20509;-46
2022/01/30 10:02:08;;;;;;;27.50;6.28;;;;;;;6.24;75.15;103004.25;4861576;29;20460;-46
2022/01/30 10:04:38;;;;;;;33.90;7.38;;;;;;;6.24;75.08;103001.53;4861596;29;20109;-45
2022/01/30 10:07:13;;;;;;;26.58;6.82;;;;;;;6.25;74.92;103008.63;4861658;29;20057;-47
2022/01/30 10:09:46;;;;;;;30.55;7.45;;;;;;;6.24;74.86;103004.25;4861794;29;20045;-47
2022/01/30 10:12:16;;;;;;;24.92;6.78;;;;;;;6.23;74.78;103012.53;4861476;29;20056;-45
2022/01/30 10:15:04;;;;;;;32.65;6.75;;;;;;;6.24;74.70;103016.94;4861652;29;20045;-47
2022/01/30 10:17:39;;;;;;;30.63;7.90;;;;;;;6.25;74.90;103026.72;4861841;29;20484;-51
2022/01/30 10:20:27;;;;;;;30.98;7.13;;;;;;;6.25;75.29;103027.56;4861671;29;20113;-45
2022/01/30 10:22:57;;;;;;;23.20;6.78;;;;;;;6.27;75.58;103022.81;4860763;29;20497;-50
2022/01/30 10:25:35;;;;;;;28.25;7.53;;;;;;;6.32;75.80;103027.69;4861002;29;20042;-47
2022/01/30 10:28:06;;;;;;;29.17;7.07;;;;;;;6.33;75.38;103032.91;4861649;29;20044;-48
2022/01/30 10:30:47;;;;;;;27.58;7.38;;;;;;;6.31;74.94;103024.13;4860905;29;20485;-47
2022/01/30 10:33:16;;;;;;;28.95;6.97;;;;;;;6.31;74.76;103024.13;4861312;29;20454;-45
2022/01/30 10:35:51;;;;;;;28.02;7.63;;;;;;;6.33;74.13;103024.78;4861254;29;20118;-43
2022/01/30 10:38:36;;;;;;;27.73;7.10;;;;;;;6.38;74.30;103030.50;4861168;29;20050;-45
2022/01/30 10:43:47;;;;;;;28.27;6.83;;;;;;;6.49;73.69;103020.22;4861364;29;20381;-47
2022/01/30 10:46:39;;;;;;;31.10;7.57;;;;;;;6.52;72.31;103026.13;4861911;29;20052;-46
2022/01/30 10:49:14;;;;;;;28.98;7.95;;;;;;;6.54;72.10;103023.19;4822903;29;20544;-47
2022/01/30 10:51:53;;;;;;;31.75;7.30;;;;;;;6.58;72.57;103024.50;4822063;29;20050;-47
2022/01/30 10:54:20;;;;;;;32.50;7.97;;;;;;;6.57;72.29;103020.97;4822436;29;20553;-46
2022/01/30 10:56:48;;;;;;;35.33;7.32;;;;;;;6.57;70.41;103022.84;4822377;29;20111;-43
2022/01/30 10:59:20;;;;;;;27.35;7.10;;;;;;;6.55;70.48;103008.66;4792082;29;20046;-47
2022/01/30 11:01:49;;;;;;;35.83;7.25;;;;;;;6.55;70.63;103011.34;4822237;29;20061;-46
2022/01/30 11:04:35;;;;;;;32.78;6.93;;;;;;;6.57;70.70;103014.72;4806709;29;20491;-48
2022/01/30 11:07:04;;;;;;;35.30;9.05;;;;;;;6.59;70.26;103015.34;4807092;29;20058;-47
2022/01/30 11:12:15;;;;;;;32.03;8.18;;;;;;;6.63;70.70;103010.41;4822305;29;20078;-46
2022/01/30 11:17:22;;;;;;;32.47;6.93;;;;;;;6.69;71.66;102988.84;4822223;29;20372;-46
2022/01/30 11:19:56;;;;;;;35.08;8.07;;;;;;;6.73;71.06;102984.69;4822142;29;20062;-48
2022/01/30 11:22:27;;;;;;;33.35;8.18;;;;;;;6.79;71.60;102985.84;4806459;29;20455;-48
2022/01/30 11:25:01;;;;;;;26.52;6.82;;;;;;;6.82;70.93;102982.75;4821658;29;20060;-49
2022/01/30 11:27:29;;;;;;;28.35;7.30;;;;;;;6.82;70.91;102983.56;4860586;29;20458;-45
2022/01/30 11:29:57;;;;;;;34.50;7.70;;;;;;;6.82;71.46;102982.75;4860492;29;20501;-44
2022/01/30 11:32:27;;;;;;;30.70;7.35;;;;;;;6.86;71.85;102983.22;4860402;29;20041;-46
2022/01/30 11:34:56;;;;;;;28.08;7.15;;;;;;;6.89;71.96;102980.13;4860352;29;20041;-47
2022/01/30 11:37:30;;;;;;;31.15;6.43;;;;;;;6.91;72.14;102976.19;4860718;29;20136;-47
2022/01/30 11:39:58;;;;;;;30.80;8.07;;;;;;;6.92;70.45;102988.69;4844071;29;20049;-46
2022/01/30 11:42:51;;;;;;;27.67;6.30;;;;;;;6.90;69.85;102990.75;4860325;29;20054;-47
2022/01/30 11:45:20;;;;;;;30.13;7.47;;;;;;;6.88;70.03;102991.97;4860498;29;20117;-46
2022/01/30 11:48:14;;;;;;;34.45;8.05;;;;;;;6.88;69.99;102983.84;4864462;29;20465;-46
2022/01/30 11:50:42;;;;;;;30.45;7.28;;;;;;;6.90;70.19;102979.06;4864064;29;20493;-43
2022/01/30 11:53:26;;;;;;;34.05;8.18;;;;;;;6.93;70.70;102967.88;4847584;29;20053;-43
2022/01/30 11:55:55;;;;;;;28.38;6.55;;;;;;;6.94;68.82;102969.53;4863755;29;20056;-42
2022/01/30 11:58:49;;;;;;;27.00;6.95;;;;;;;6.97;69.00;102975.41;4864236;29;20049;-46
2022/01/30 12:01:25;;;;;;;25.67;6.47;;;;;;;6.94;69.56;102973.09;4847507;29;20057;-47
2022/01/30 12:04:00;;;;;;;25.50;7.00;;;;;;;6.89;68.09;102975.53;4863917;29;20042;-48
2022/01/30 12:06:39;;;;;;;28.45;6.70;;;;;;;6.86;68.08;102972.38;4863613;29;20049;-45
2022/01/30 12:09:19;;;;;;;25.73;6.00;;;;;;;6.88;68.55;102971.16;4847813;29;20049;-47
2022/01/30 12:11:47;;;;;;;33.50;7.38;;;;;;;6.92;68.94;102980.56;4863866;29;20469;-47
2022/01/30 12:14:21;;;;;;;31.95;7.00;;;;;;;7.01;73.03;102967.75;4863450;29;20069;-46
2022/01/30 12:16:52;;;;;;;27.30;6.32;;;;;;;7.05;67.97;102969.06;4863771;29;20073;-45
2022/01/30 12:19:39;;;;;;;26.77;6.68;;;;;;;7.11;68.45;102964.72;4845432;29;20050;-46
2022/01/30 12:22:18;;;;;;;27.75;7.72;;;;;;;7.09;63.56;102962.19;4845340;29;20046;-48
2022/01/30 12:24:48;;;;;;;24.45;6.90;;;;;;;7.14;63.57;102967.88;4833357;29;20080;-49
2022/01/30 12:27:16;;;;;;;28.83;7.38;;;;;;;7.17;63.40;102969.41;4863528;29;20042;-47
2022/01/30 12:29:51;;;;;;;28.45;7.00;;;;;;;7.12;64.17;102967.25;4863541;29;20124;-46
2022/01/30 12:32:24;;;;;;;27.50;6.28;;;;;;;7.10;65.14;102968.47;4863415;29;20053;-44
2022/01/30 12:35:00;;;;;;;31.88;7.53;;;;;;;7.03;66.66;102957.56;4863259;29;20042;-45
2022/01/30 12:37:36;;;;;;;30.55;6.97;;;;;;;7.00;67.47;102960.66;4846857;29;20519;-45
2022/01/30 12:40:20;;;;;;;31.37;7.83;;;;;;;7.02;67.59;102950.44;4863396;29;20401;-46
2022/01/30 12:42:48;;;;;;;23.35;6.53;;;;;;;7.04;66.14;102948.38;4861515;29;20064;-48
2022/01/30 12:45:16;;;;;;;27.23;7.15;;;;;;;7.07;66.19;102934.47;4862929;29;20503;-48
2022/01/30 12:47:52;;;;;;;28.95;6.32;;;;;;;7.09;64.91;102928.84;4863198;29;20056;-50
2022/01/30 12:50:25;;;;;;;29.48;6.80;;;;;;;7.12;64.12;102932.00;4863171;29;20094;-48
2022/01/30 12:52:53;;;;;;;28.20;6.38;;;;;;;7.15;64.36;102912.63;4863209;29;20058;-47
2022/01/30 12:55:22;;;;;;;31.70;7.13;;;;;;;7.21;64.48;102901.00;4855576;29;20084;-47
2022/01/30 12:57:53;;;;;;;27.80;6.30;;;;;;;7.27;63.99;102896.69;4862597;29;20136;-49
2022/01/30 13:00:22;;;;;;;28.92;6.15;;;;;;;7.32;63.07;102893.41;4846647;29;20155;-48
2022/01/30 13:03:00;;;;;;;28.40;6.70;;;;;;;7.36;62.57;102886.53;4862971;29;20129;-47
2022/01/30 13:05:31;;;;;;;23.95;5.78;;;;;;;7.35;62.47;102884.88;4862590;29;20050;-45